sensor_id;sensor_type;location;lat;lon;timestamp;P1;durP1;ratioP1;P2;durP2;ratioP2
62010;SDS011;47967;51.756;10.174;2022-07-24T00:03:27;2.63;;;2.20;;
62010;SDS011;47967;51.756;10.174;2022-07-24T00:07:30;2.97;;;1.95;;
62010;SDS011;47967;51.756;10.174;2022-07-24T00:11:33;3.43;;;2.00;;
62010;SDS011;47967;51.756;10.174;2022-07-24T00:15:37;2.35;;;1.95;;
62010;SDS011;47967;51.756;10.174;2022-07-24T00:19:40;1.95;;;1.67;;
62010;SDS011;47967;51.756;10.174;2022-07-24T00:23:42;3.50;;;2.17;;
62010;SDS011;47967;51.756;10.174;2022-07-24T00:27:45;2.00;;;1.70;;
62010;SDS011;47967;51.756;10.174;2022-07-24T00:31:49;4.30;;;2.03;;
62010;SDS011;47967;51.756;10.174;2022-07-24T00:35:51;2.70;;;1.90;;
62010;SDS011;47967;51.756;10.174;2022-07-24T00:39:54;5.20;;;2.13;;
62010;SDS011;47967;51.756;10.174;2022-07-24T00:44:04;3.00;;;1.90;;
62010;SDS011;47967;51.756;10.174;2022-07-24T00:48:09;3.10;;;1.90;;
62010;SDS011;47967;51.756;10.174;2022-07-24T00:52:12;4.18;;;2.10;;
62010;SDS011;47967;51.756;10.174;2022-07-24T00:56:15;2.30;;;2.00;;
62010;SDS011;47967;51.756;10.174;2022-07-24T01:00:18;2.40;;;1.90;;
62010;SDS011;47967;51.756;10.174;2022-07-24T01:04:23;2.30;;;1.80;;
62010;SDS011;47967;51.756;10.174;2022-07-24T01:08:26;1.98;;;1.75;;
62010;SDS011;47967;51.756;10.174;2022-07-24T01:12:29;2.47;;;1.90;;
62010;SDS011;47967;51.756;10.174;2022-07-24T01:16:33;3.67;;;1.77;;
62010;SDS011;47967;51.756;10.174;2022-07-24T01:20:37;1.80;;;1.70;;
62010;SDS011;47967;51.756;10.174;2022-07-24T01:24:40;1.73;;;1.63;;
62010;SDS011;47967;51.756;10.174;2022-07-24T01:28:42;2.73;;;1.70;;
62010;SDS011;47967;51.756;10.174;2022-07-24T01:32:45;1.90;;;1.70;;
62010;SDS011;47967;51.756;10.174;2022-07-24T01:36:49;2.90;;;1.80;;
62010;SDS011;47967;51.756;10.174;2022-07-24T01:40:51;2.50;;;1.92;;
62010;SDS011;47967;51.756;10.174;2022-07-24T01:44:54;10.13;;;2.33;;
62010;SDS011;47967;51.756;10.174;2022-07-24T01:48:56;3.33;;;2.10;;
62010;SDS011;47967;51.756;10.174;2022-07-24T01:53:00;3.00;;;1.60;;
62010;SDS011;47967;51.756;10.174;2022-07-24T01:57:04;7.47;;;1.90;;
62010;SDS011;47967;51.756;10.174;2022-07-24T02:01:06;3.00;;;1.87;;
62010;SDS011;47967;51.756;10.174;2022-07-24T02:05:09;2.77;;;2.00;;
62010;SDS011;47967;51.756;10.174;2022-07-24T02:09:15;4.22;;;1.90;;
62010;SDS011;47967;51.756;10.174;2022-07-24T02:13:17;1.80;;;1.70;;
62010;SDS011;47967;51.756;10.174;2022-07-24T02:17:20;2.10;;;1.87;;
62010;SDS011;47967;51.756;10.174;2022-07-24T02:21:23;2.13;;;1.80;;
62010;SDS011;47967;51.756;10.174;2022-07-24T02:25:27;2.80;;;1.90;;
62010;SDS011;47967;51.756;10.174;2022-07-24T02:29:29;3.53;;;2.13;;
62010;SDS011;47967;51.756;10.174;2022-07-24T02:33:32;6.33;;;2.93;;
62010;SDS011;47967;51.756;10.174;2022-07-24T02:37:35;2.93;;;1.80;;
62010;SDS011;47967;51.756;10.174;2022-07-24T02:45:42;4.63;;;2.00;;
62010;SDS011;47967;51.756;10.174;2022-07-24T02:49:51;3.53;;;2.20;;
62010;SDS011;47967;51.756;10.174;2022-07-24T02:53:53;2.28;;;2.03;;
62010;SDS011;47967;51.756;10.174;2022-07-24T02:57:57;12.70;;;2.40;;
62010;SDS011;47967;51.756;10.174;2022-07-24T03:02:00;3.78;;;2.00;;
62010;SDS011;47967;51.756;10.174;2022-07-24T03:06:03;4.73;;;2.10;;
62010;SDS011;47967;51.756;10.174;2022-07-24T03:10:07;6.55;;;2.15;;
62010;SDS011;47967;51.756;10.174;2022-07-24T03:14:13;4.68;;;1.83;;
62010;SDS011;47967;51.756;10.174;2022-07-24T03:18:15;2.60;;;1.90;;
62010;SDS011;47967;51.756;10.174;2022-07-24T03:22:23;2.17;;;1.98;;
62010;SDS011;47967;51.756;10.174;2022-07-24T03:26:25;2.20;;;2.00;;
62010;SDS011;47967;51.756;10.174;2022-07-24T03:30:30;2.40;;;1.80;;
62010;SDS011;47967;51.756;10.174;2022-07-24T03:34:33;1.98;;;1.77;;
62010;SDS011;47967;51.756;10.174;2022-07-24T03:38:35;4.93;;;1.90;;
62010;SDS011;47967;51.756;10.174;2022-07-24T03:42:38;8.20;;;2.23;;
62010;SDS011;47967;51.756;10.174;2022-07-24T03:46:42;2.67;;;2.00;;
62010;SDS011;47967;51.756;10.174;2022-07-24T03:50:45;2.80;;;2.15;;
62010;SDS011;47967;51.756;10.174;2022-07-24T03:54:47;10.10;;;2.13;;
62010;SDS011;47967;51.756;10.174;2022-07-24T03:58:50;14.50;;;2.88;;
62010;SDS011;47967;51.756;10.174;2022-07-24T04:02:54;2.57;;;2.10;;
62010;SDS011;47967;51.756;10.174;2022-07-24T04:06:56;2.67;;;2.00;;
62010;SDS011;47967;51.756;10.174;2022-07-24T04:15:03;4.13;;;2.40;;
62010;SDS011;47967;51.756;10.174;2022-07-24T04:23:10;3.55;;;2.30;;
62010;SDS011;47967;51.756;10.174;2022-07-24T04:27:12;2.50;;;2.30;;
62010;SDS011;47967;51.756;10.174;2022-07-24T04:31:15;2.72;;;2.28;;
62010;SDS011;47967;51.756;10.174;2022-07-24T04:35:19;2.30;;;2.10;;
62010;SDS011;47967;51.756;10.174;2022-07-24T04:39:22;2.28;;;1.90;;
62010;SDS011;47967;51.756;10.174;2022-07-24T04:43:25;4.70;;;2.27;;
62010;SDS011;47967;51.756;10.174;2022-07-24T04:47:27;3.40;;;1.97;;
62010;SDS011;47967;51.756;10.174;2022-07-24T04:51:31;2.53;;;2.10;;
62010;SDS011;47967;51.756;10.174;2022-07-24T04:55:34;2.17;;;1.98;;
62010;SDS011;47967;51.756;10.174;2022-07-24T04:59:37;2.27;;;2.07;;
62010;SDS011;47967;51.756;10.174;2022-07-24T05:03:39;4.67;;;2.40;;
62010;SDS011;47967;51.756;10.174;2022-07-24T05:07:43;2.47;;;2.10;;
62010;SDS011;47967;51.756;10.174;2022-07-24T05:11:46;2.65;;;2.03;;
62010;SDS011;47967;51.756;10.174;2022-07-24T05:15:48;8.40;;;1.87;;
62010;SDS011;47967;51.756;10.174;2022-07-24T05:19:51;2.67;;;2.20;;
62010;SDS011;47967;51.756;10.174;2022-07-24T05:23:55;3.33;;;2.20;;
62010;SDS011;47967;51.756;10.174;2022-07-24T05:27:58;2.63;;;2.30;;
62010;SDS011;47967;51.756;10.174;2022-07-24T05:32:01;1.90;;;1.80;;
62010;SDS011;47967;51.756;10.174;2022-07-24T05:36:04;2.33;;;2.13;;
62010;SDS011;47967;51.756;10.174;2022-07-24T05:40:09;4.05;;;1.85;;
62010;SDS011;47967;51.756;10.174;2022-07-24T05:44:12;4.32;;;1.90;;
62010;SDS011;47967;51.756;10.174;2022-07-24T05:48:15;7.43;;;1.97;;
62010;SDS011;47967;51.756;10.174;2022-07-24T05:52:17;2.50;;;1.93;;
62010;SDS011;47967;51.756;10.174;2022-07-24T05:56:21;2.30;;;1.70;;
62010;SDS011;47967;51.756;10.174;2022-07-24T06:00:24;4.25;;;1.90;;
62010;SDS011;47967;51.756;10.174;2022-07-24T06:04:26;7.90;;;2.40;;
62010;SDS011;47967;51.756;10.174;2022-07-24T06:08:29;11.23;;;3.10;;
62010;SDS011;47967;51.756;10.174;2022-07-24T06:12:33;5.83;;;2.10;;
62010;SDS011;47967;51.756;10.174;2022-07-24T06:16:36;2.05;;;1.80;;
62010;SDS011;47967;51.756;10.174;2022-07-24T06:20:39;2.37;;;1.90;;
62010;SDS011;47967;51.756;10.174;2022-07-24T06:24:41;8.80;;;1.90;;
62010;SDS011;47967;51.756;10.174;2022-07-24T06:28:45;5.50;;;2.20;;
62010;SDS011;47967;51.756;10.174;2022-07-24T06:32:48;4.07;;;1.77;;
62010;SDS011;47967;51.756;10.174;2022-07-24T06:36:51;1.65;;;1.50;;
62010;SDS011;47967;51.756;10.174;2022-07-24T06:44:58;1.75;;;1.60;;
62010;SDS011;47967;51.756;10.174;2022-07-24T06:49:00;4.93;;;1.73;;
62010;SDS011;47967;51.756;10.174;2022-07-24T06:53:03;2.90;;;1.67;;
62010;SDS011;47967;51.756;10.174;2022-07-24T06:57:06;6.38;;;1.83;;
62010;SDS011;47967;51.756;10.174;2022-07-24T07:01:10;2.10;;;1.70;;
62010;SDS011;47967;51.756;10.174;2022-07-24T07:05:12;4.07;;;1.63;;
62010;SDS011;47967;51.756;10.174;2022-07-24T07:09:15;4.15;;;1.70;;
62010;SDS011;47967;51.756;10.174;2022-07-24T07:13:18;2.40;;;1.60;;
62010;SDS011;47967;51.756;10.174;2022-07-24T07:17:21;1.98;;;1.60;;
62010;SDS011;47967;51.756;10.174;2022-07-24T07:21:24;4.75;;;1.77;;
62010;SDS011;47967;51.756;10.174;2022-07-24T07:25:27;1.83;;;1.60;;
62010;SDS011;47967;51.756;10.174;2022-07-24T07:29:29;4.75;;;1.67;;
62010;SDS011;47967;51.756;10.174;2022-07-24T07:33:33;3.47;;;1.70;;
62010;SDS011;47967;51.756;10.174;2022-07-24T07:37:35;4.68;;;2.20;;
62010;SDS011;47967;51.756;10.174;2022-07-24T07:41:38;3.05;;;1.80;;
62010;SDS011;47967;51.756;10.174;2022-07-24T07:45:43;3.20;;;1.88;;
62010;SDS011;47967;51.756;10.174;2022-07-24T07:49:47;2.95;;;1.50;;
62010;SDS011;47967;51.756;10.174;2022-07-24T07:53:49;2.60;;;1.70;;
62010;SDS011;47967;51.756;10.174;2022-07-24T07:57:52;3.05;;;1.58;;
62010;SDS011;47967;51.756;10.174;2022-07-24T08:02:10;2.20;;;1.80;;
62010;SDS011;47967;51.756;10.174;2022-07-24T08:06:14;2.58;;;1.60;;
62010;SDS011;47967;51.756;10.174;2022-07-24T08:10:17;6.63;;;1.90;;
62010;SDS011;47967;51.756;10.174;2022-07-24T08:14:21;2.03;;;1.83;;
62010;SDS011;47967;51.756;10.174;2022-07-24T08:18:24;3.42;;;1.90;;
62010;SDS011;47967;51.756;10.174;2022-07-24T08:22:28;4.25;;;1.83;;
62010;SDS011;47967;51.756;10.174;2022-07-24T08:26:31;2.47;;;2.00;;
62010;SDS011;47967;51.756;10.174;2022-07-24T08:30:33;4.93;;;2.00;;
62010;SDS011;47967;51.756;10.174;2022-07-24T08:34:36;4.70;;;2.17;;
62010;SDS011;47967;51.756;10.174;2022-07-24T08:38:40;2.95;;;2.20;;
62010;SDS011;47967;51.756;10.174;2022-07-24T08:42:44;3.05;;;2.13;;
62010;SDS011;47967;51.756;10.174;2022-07-24T08:46:49;4.70;;;2.88;;
62010;SDS011;47967;51.756;10.174;2022-07-24T08:54:56;3.97;;;2.40;;
62010;SDS011;47967;51.756;10.174;2022-07-24T08:58:58;4.53;;;2.92;;
62010;SDS011;47967;51.756;10.174;2022-07-24T09:03:02;5.20;;;2.80;;
62010;SDS011;47967;51.756;10.174;2022-07-24T09:11:10;5.47;;;2.88;;
62010;SDS011;47967;51.756;10.174;2022-07-24T09:15:20;5.18;;;2.70;;
62010;SDS011;47967;51.756;10.174;2022-07-24T09:19:25;4.47;;;2.60;;
62010;SDS011;47967;51.756;10.174;2022-07-24T09:23:29;4.82;;;2.63;;
62010;SDS011;47967;51.756;10.174;2022-07-24T09:27:33;5.30;;;2.55;;
62010;SDS011;47967;51.756;10.174;2022-07-24T09:31:48;3.20;;;2.30;;
62010;SDS011;47967;51.756;10.174;2022-07-24T09:35:54;4.68;;;2.53;;
62010;SDS011;47967;51.756;10.174;2022-07-24T09:40:08;2.97;;;2.38;;
62010;SDS011;47967;51.756;10.174;2022-07-24T09:44:13;3.45;;;2.35;;
62010;SDS011;47967;51.756;10.174;2022-07-24T09:48:18;4.60;;;2.50;;
62010;SDS011;47967;51.756;10.174;2022-07-24T09:52:23;4.57;;;2.63;;
62010;SDS011;47967;51.756;10.174;2022-07-24T09:56:35;5.72;;;2.67;;
62010;SDS011;47967;51.756;10.174;2022-07-24T10:00:39;4.40;;;2.17;;
62010;SDS011;47967;51.756;10.174;2022-07-24T10:04:45;2.75;;;2.40;;
62010;SDS011;47967;51.756;10.174;2022-07-24T10:08:50;3.80;;;2.20;;
62010;SDS011;47967;51.756;10.174;2022-07-24T10:12:53;4.78;;;2.50;;
62010;SDS011;47967;51.756;10.174;2022-07-24T10:17:01;6.13;;;2.97;;
62010;SDS011;47967;51.756;10.174;2022-07-24T10:21:25;6.10;;;2.53;;
62010;SDS011;47967;51.756;10.174;2022-07-24T10:25:33;5.95;;;2.78;;
62010;SDS011;47967;51.756;10.174;2022-07-24T10:29:49;3.45;;;2.55;;
62010;SDS011;47967;51.756;10.174;2022-07-24T10:33:55;3.67;;;2.40;;
62010;SDS011;47967;51.756;10.174;2022-07-24T10:38:02;3.70;;;2.50;;
62010;SDS011;47967;51.756;10.174;2022-07-24T10:42:14;3.38;;;2.40;;
62010;SDS011;47967;51.756;10.174;2022-07-24T10:46:18;3.67;;;2.70;;
62010;SDS011;47967;51.756;10.174;2022-07-24T10:50:22;4.57;;;2.63;;
62010;SDS011;47967;51.756;10.174;2022-07-24T10:54:26;4.50;;;2.38;;
62010;SDS011;47967;51.756;10.174;2022-07-24T10:58:29;4.05;;;2.60;;
62010;SDS011;47967;51.756;10.174;2022-07-24T11:06:40;3.85;;;1.90;;
62010;SDS011;47967;51.756;10.174;2022-07-24T11:10:44;2.95;;;2.30;;
62010;SDS011;47967;51.756;10.174;2022-07-24T11:14:48;1.77;;;1.67;;
62010;SDS011;47967;51.756;10.174;2022-07-24T11:23:31;2.47;;;2.15;;
62010;SDS011;47967;51.756;10.174;2022-07-24T11:27:41;3.50;;;1.90;;
62010;SDS011;47967;51.756;10.174;2022-07-24T11:31:50;3.65;;;1.90;;
62010;SDS011;47967;51.756;10.174;2022-07-24T11:36:00;2.85;;;2.00;;
62010;SDS011;47967;51.756;10.174;2022-07-24T11:40:14;6.40;;;2.28;;
62010;SDS011;47967;51.756;10.174;2022-07-24T11:44:21;2.72;;;1.90;;
62010;SDS011;47967;51.756;10.174;2022-07-24T11:48:26;2.22;;;1.83;;
62010;SDS011;47967;51.756;10.174;2022-07-24T11:52:31;3.55;;;2.30;;
62010;SDS011;47967;51.756;10.174;2022-07-24T11:56:36;4.47;;;2.10;;
62010;SDS011;47967;51.756;10.174;2022-07-24T12:00:40;2.97;;;1.95;;
62010;SDS011;47967;51.756;10.174;2022-07-24T12:04:43;3.67;;;2.15;;
62010;SDS011;47967;51.756;10.174;2022-07-24T12:08:48;4.32;;;2.28;;
62010;SDS011;47967;51.756;10.174;2022-07-24T12:12:53;3.10;;;2.22;;
62010;SDS011;47967;51.756;10.174;2022-07-24T12:16:57;3.58;;;2.15;;
62010;SDS011;47967;51.756;10.174;2022-07-24T12:21:01;4.28;;;2.10;;
62010;SDS011;47967;51.756;10.174;2022-07-24T12:25:05;2.65;;;2.13;;
62010;SDS011;47967;51.756;10.174;2022-07-24T12:29:10;2.85;;;2.40;;
62010;SDS011;47967;51.756;10.174;2022-07-24T12:33:19;2.63;;;2.15;;
62010;SDS011;47967;51.756;10.174;2022-07-24T12:37:22;3.88;;;2.50;;
62010;SDS011;47967;51.756;10.174;2022-07-24T12:41:26;2.88;;;2.17;;
62010;SDS011;47967;51.756;10.174;2022-07-24T12:45:32;2.63;;;2.10;;
62010;SDS011;47967;51.756;10.174;2022-07-24T12:49:39;7.72;;;2.47;;
62010;SDS011;47967;51.756;10.174;2022-07-24T12:53:42;3.90;;;2.20;;
62010;SDS011;47967;51.756;10.174;2022-07-24T12:57:45;2.30;;;2.10;;
62010;SDS011;47967;51.756;10.174;2022-07-24T13:01:50;3.67;;;2.33;;
62010;SDS011;47967;51.756;10.174;2022-07-24T13:05:55;2.45;;;2.25;;
62010;SDS011;47967;51.756;10.174;2022-07-24T13:09:57;3.03;;;2.60;;
62010;SDS011;47967;51.756;10.174;2022-07-24T13:14:01;2.70;;;2.47;;
62010;SDS011;47967;51.756;10.174;2022-07-24T13:18:09;3.13;;;2.33;;
62010;SDS011;47967;51.756;10.174;2022-07-24T13:22:12;2.95;;;2.50;;
62010;SDS011;47967;51.756;10.174;2022-07-24T13:26:14;2.63;;;2.33;;
62010;SDS011;47967;51.756;10.174;2022-07-24T13:30:17;4.75;;;2.35;;
62010;SDS011;47967;51.756;10.174;2022-07-24T13:34:21;3.85;;;2.40;;
62010;SDS011;47967;51.756;10.174;2022-07-24T13:38:24;4.07;;;2.53;;
62010;SDS011;47967;51.756;10.174;2022-07-24T13:42:28;5.18;;;2.40;;
62010;SDS011;47967;51.756;10.174;2022-07-24T13:46:30;3.53;;;2.35;;
62010;SDS011;47967;51.756;10.174;2022-07-24T13:50:35;3.53;;;2.38;;
62010;SDS011;47967;51.756;10.174;2022-07-24T13:54:38;4.65;;;2.45;;
62010;SDS011;47967;51.756;10.174;2022-07-24T13:58:40;5.32;;;2.53;;
62010;SDS011;47967;51.756;10.174;2022-07-24T14:02:44;4.18;;;2.50;;
62010;SDS011;47967;51.756;10.174;2022-07-24T14:06:48;3.72;;;2.47;;
62010;SDS011;47967;51.756;10.174;2022-07-24T14:10:51;3.92;;;2.50;;
62010;SDS011;47967;51.756;10.174;2022-07-24T14:14:54;5.32;;;2.58;;
62010;SDS011;47967;51.756;10.174;2022-07-24T14:18:56;4.70;;;2.65;;
62010;SDS011;47967;51.756;10.174;2022-07-24T14:23:00;3.70;;;2.63;;
62010;SDS011;47967;51.756;10.174;2022-07-24T14:27:03;4.45;;;2.53;;
62010;SDS011;47967;51.756;10.174;2022-07-24T14:31:06;3.70;;;2.33;;
62010;SDS011;47967;51.756;10.174;2022-07-24T14:35:09;3.00;;;2.40;;
62010;SDS011;47967;51.756;10.174;2022-07-24T14:39:13;3.95;;;2.30;;
62010;SDS011;47967;51.756;10.174;2022-07-24T14:43:16;7.28;;;2.40;;
62010;SDS011;47967;51.756;10.174;2022-07-24T14:47:19;4.28;;;2.50;;
62010;SDS011;47967;51.756;10.174;2022-07-24T14:51:21;3.33;;;2.45;;
62010;SDS011;47967;51.756;10.174;2022-07-24T14:55:25;2.65;;;2.40;;
62010;SDS011;47967;51.756;10.174;2022-07-24T14:59:28;6.40;;;2.88;;
62010;SDS011;47967;51.756;10.174;2022-07-24T15:03:30;4.25;;;2.58;;
62010;SDS011;47967;51.756;10.174;2022-07-24T15:07:33;3.03;;;2.45;;
62010;SDS011;47967;51.756;10.174;2022-07-24T15:11:37;4.03;;;2.20;;
62010;SDS011;47967;51.756;10.174;2022-07-24T15:15:40;2.95;;;2.40;;
62010;SDS011;47967;51.756;10.174;2022-07-24T15:19:42;3.47;;;2.63;;
62010;SDS011;47967;51.756;10.174;2022-07-24T15:23:46;3.03;;;2.58;;
62010;SDS011;47967;51.756;10.174;2022-07-24T15:27:49;3.28;;;2.58;;
62010;SDS011;47967;51.756;10.174;2022-07-24T15:31:52;4.25;;;2.63;;
62010;SDS011;47967;51.756;10.174;2022-07-24T15:35:55;2.83;;;2.53;;
62010;SDS011;47967;51.756;10.174;2022-07-24T15:39:57;3.63;;;2.30;;
62010;SDS011;47967;51.756;10.174;2022-07-24T15:44:01;3.70;;;2.38;;
62010;SDS011;47967;51.756;10.174;2022-07-24T15:48:05;3.33;;;2.60;;
62010;SDS011;47967;51.756;10.174;2022-07-24T15:52:08;5.22;;;2.70;;
62010;SDS011;47967;51.756;10.174;2022-07-24T15:56:10;3.88;;;2.28;;
62010;SDS011;47967;51.756;10.174;2022-07-24T16:00:14;3.20;;;2.60;;
62010;SDS011;47967;51.756;10.174;2022-07-24T16:04:17;4.28;;;2.50;;
62010;SDS011;47967;51.756;10.174;2022-07-24T16:08:20;6.90;;;2.60;;
62010;SDS011;47967;51.756;10.174;2022-07-24T16:12:23;2.63;;;2.42;;
62010;SDS011;47967;51.756;10.174;2022-07-24T16:16:26;2.75;;;2.50;;
62010;SDS011;47967;51.756;10.174;2022-07-24T16:20:29;3.83;;;2.50;;
62010;SDS011;47967;51.756;10.174;2022-07-24T16:24:32;3.70;;;2.47;;
62010;SDS011;47967;51.756;10.174;2022-07-24T16:28:35;3.75;;;2.60;;
62010;SDS011;47967;51.756;10.174;2022-07-24T16:32:39;5.20;;;2.50;;
62010;SDS011;47967;51.756;10.174;2022-07-24T16:36:42;2.72;;;2.50;;
62010;SDS011;47967;51.756;10.174;2022-07-24T16:40:45;2.60;;;2.40;;
62010;SDS011;47967;51.756;10.174;2022-07-24T16:44:48;3.00;;;2.40;;
62010;SDS011;47967;51.756;10.174;2022-07-24T16:48:52;3.85;;;2.42;;
62010;SDS011;47967;51.756;10.174;2022-07-24T16:52:55;7.00;;;2.70;;
62010;SDS011;47967;51.756;10.174;2022-07-24T16:56:58;2.92;;;2.30;;
62010;SDS011;47967;51.756;10.174;2022-07-24T17:01:00;3.97;;;2.35;;
62010;SDS011;47967;51.756;10.174;2022-07-24T17:05:06;3.00;;;2.50;;
62010;SDS011;47967;51.756;10.174;2022-07-24T17:09:09;3.88;;;2.50;;
62010;SDS011;47967;51.756;10.174;2022-07-24T17:13:11;4.05;;;2.70;;
62010;SDS011;47967;51.756;10.174;2022-07-24T17:17:14;2.90;;;2.60;;
62010;SDS011;47967;51.756;10.174;2022-07-24T17:21:18;2.67;;;2.45;;
62010;SDS011;47967;51.756;10.174;2022-07-24T17:25:21;4.22;;;2.80;;
62010;SDS011;47967;51.756;10.174;2022-07-24T17:29:28;4.90;;;2.33;;
62010;SDS011;47967;51.756;10.174;2022-07-24T17:33:30;2.83;;;2.63;;
62010;SDS011;47967;51.756;10.174;2022-07-24T17:37:34;3.72;;;2.83;;
62010;SDS011;47967;51.756;10.174;2022-07-24T17:41:37;4.05;;;2.88;;
62010;SDS011;47967;51.756;10.174;2022-07-24T17:45:39;3.10;;;2.47;;
62010;SDS011;47967;51.756;10.174;2022-07-24T17:49:42;2.90;;;2.60;;
62010;SDS011;47967;51.756;10.174;2022-07-24T17:53:46;3.10;;;2.50;;
62010;SDS011;47967;51.756;10.174;2022-07-24T17:57:49;3.67;;;2.42;;
62010;SDS011;47967;51.756;10.174;2022-07-24T18:01:52;4.00;;;2.75;;
62010;SDS011;47967;51.756;10.174;2022-07-24T18:05:55;3.28;;;2.70;;
62010;SDS011;47967;51.756;10.174;2022-07-24T18:09:59;3.97;;;2.60;;
62010;SDS011;47967;51.756;10.174;2022-07-24T18:14:01;3.92;;;2.63;;
62010;SDS011;47967;51.756;10.174;2022-07-24T18:18:05;5.53;;;2.78;;
62010;SDS011;47967;51.756;10.174;2022-07-24T18:22:08;6.22;;;2.90;;
62010;SDS011;47967;51.756;10.174;2022-07-24T18:26:12;3.55;;;2.80;;
62010;SDS011;47967;51.756;10.174;2022-07-24T18:30:15;4.30;;;2.65;;
62010;SDS011;47967;51.756;10.174;2022-07-24T18:34:18;6.20;;;2.67;;
62010;SDS011;47967;51.756;10.174;2022-07-24T18:38:21;4.18;;;2.88;;
62010;SDS011;47967;51.756;10.174;2022-07-24T18:42:25;3.53;;;2.70;;
62010;SDS011;47967;51.756;10.174;2022-07-24T18:46:28;4.72;;;2.95;;
62010;SDS011;47967;51.756;10.174;2022-07-24T18:50:31;5.65;;;2.80;;
62010;SDS011;47967;51.756;10.174;2022-07-24T18:54:33;5.70;;;3.38;;
62010;SDS011;47967;51.756;10.174;2022-07-24T18:58:37;5.50;;;2.90;;
62010;SDS011;47967;51.756;10.174;2022-07-24T19:02:41;6.72;;;3.00;;
62010;SDS011;47967;51.756;10.174;2022-07-24T19:06:44;4.32;;;2.92;;
62010;SDS011;47967;51.756;10.174;2022-07-24T19:10:51;5.70;;;3.17;;
62010;SDS011;47967;51.756;10.174;2022-07-24T19:14:55;7.18;;;2.90;;
62010;SDS011;47967;51.756;10.174;2022-07-24T19:18:57;3.22;;;2.80;;
62010;SDS011;47967;51.756;10.174;2022-07-24T19:23:00;7.90;;;3.00;;
62010;SDS011;47967;51.756;10.174;2022-07-24T19:27:03;5.13;;;3.50;;
62010;SDS011;47967;51.756;10.174;2022-07-24T19:31:07;5.72;;;3.05;;
62010;SDS011;47967;51.756;10.174;2022-07-24T19:35:10;5.95;;;3.15;;
62010;SDS011;47967;51.756;10.174;2022-07-24T19:39:12;17.00;;;3.85;;
62010;SDS011;47967;51.756;10.174;2022-07-24T19:43:15;5.70;;;3.10;;
62010;SDS011;47967;51.756;10.174;2022-07-24T19:47:30;6.57;;;3.20;;
62010;SDS011;47967;51.756;10.174;2022-07-24T19:51:32;10.73;;;3.20;;
62010;SDS011;47967;51.756;10.174;2022-07-24T19:55:44;11.17;;;3.17;;
62010;SDS011;47967;51.756;10.174;2022-07-24T19:59:47;14.55;;;4.22;;
62010;SDS011;47967;51.756;10.174;2022-07-24T20:03:51;9.98;;;3.75;;
62010;SDS011;47967;51.756;10.174;2022-07-24T20:07:54;19.65;;;4.00;;
62010;SDS011;47967;51.756;10.174;2022-07-24T20:11:56;18.30;;;4.25;;
62010;SDS011;47967;51.756;10.174;2022-07-24T20:20:03;13.60;;;3.63;;
62010;SDS011;47967;51.756;10.174;2022-07-24T20:24:06;24.20;;;4.55;;
62010;SDS011;47967;51.756;10.174;2022-07-24T20:28:11;23.05;;;4.10;;
62010;SDS011;47967;51.756;10.174;2022-07-24T20:32:14;11.32;;;3.95;;
62010;SDS011;47967;51.756;10.174;2022-07-24T20:36:18;9.25;;;3.47;;
62010;SDS011;47967;51.756;10.174;2022-07-24T20:40:21;7.72;;;3.45;;
62010;SDS011;47967;51.756;10.174;2022-07-24T20:44:24;10.45;;;3.72;;
62010;SDS011;47967;51.756;10.174;2022-07-24T20:48:26;9.55;;;3.83;;
62010;SDS011;47967;51.756;10.174;2022-07-24T20:52:31;6.45;;;3.42;;
62010;SDS011;47967;51.756;10.174;2022-07-24T20:56:33;7.47;;;3.90;;
62010;SDS011;47967;51.756;10.174;2022-07-24T21:00:36;7.82;;;3.47;;
62010;SDS011;47967;51.756;10.174;2022-07-24T21:08:43;13.93;;;3.88;;
62010;SDS011;47967;51.756;10.174;2022-07-24T21:12:55;14.23;;;4.50;;
62010;SDS011;47967;51.756;10.174;2022-07-24T21:16:58;9.75;;;3.90;;
62010;SDS011;47967;51.756;10.174;2022-07-24T21:21:00;8.93;;;4.00;;
62010;SDS011;47967;51.756;10.174;2022-07-24T21:25:05;7.28;;;3.97;;
62010;SDS011;47967;51.756;10.174;2022-07-24T21:29:08;13.15;;;3.67;;
62010;SDS011;47967;51.756;10.174;2022-07-24T21:33:11;8.45;;;3.70;;
62010;SDS011;47967;51.756;10.174;2022-07-24T21:37:13;6.70;;;3.53;;
62010;SDS011;47967;51.756;10.174;2022-07-24T21:41:17;7.60;;;4.00;;
62010;SDS011;47967;51.756;10.174;2022-07-24T21:45:21;7.78;;;3.90;;
62010;SDS011;47967;51.756;10.174;2022-07-24T21:49:24;6.05;;;3.97;;
62010;SDS011;47967;51.756;10.174;2022-07-24T21:53:27;6.43;;;3.85;;
62010;SDS011;47967;51.756;10.174;2022-07-24T21:57:31;6.00;;;3.78;;
62010;SDS011;47967;51.756;10.174;2022-07-24T22:01:34;9.32;;;3.78;;
62010;SDS011;47967;51.756;10.174;2022-07-24T22:05:37;5.80;;;3.70;;
62010;SDS011;47967;51.756;10.174;2022-07-24T22:09:40;5.38;;;4.00;;
62010;SDS011;47967;51.756;10.174;2022-07-24T22:13:44;5.53;;;4.05;;
62010;SDS011;47967;51.756;10.174;2022-07-24T22:17:46;9.15;;;4.13;;
62010;SDS011;47967;51.756;10.174;2022-07-24T22:21:49;6.75;;;4.30;;
62010;SDS011;47967;51.756;10.174;2022-07-24T22:25:52;7.10;;;4.18;;
62010;SDS011;47967;51.756;10.174;2022-07-24T22:29:56;6.78;;;3.97;;
62010;SDS011;47967;51.756;10.174;2022-07-24T22:33:58;4.43;;;3.67;;
62010;SDS011;47967;51.756;10.174;2022-07-24T22:42:05;5.50;;;3.90;;
62010;SDS011;47967;51.756;10.174;2022-07-24T22:46:09;6.63;;;3.80;;
62010;SDS011;47967;51.756;10.174;2022-07-24T22:50:13;4.15;;;3.42;;
62010;SDS011;47967;51.756;10.174;2022-07-24T22:54:17;6.65;;;4.10;;
62010;SDS011;47967;51.756;10.174;2022-07-24T22:58:25;5.57;;;3.90;;
62010;SDS011;47967;51.756;10.174;2022-07-24T23:02:29;6.22;;;4.03;;
62010;SDS011;47967;51.756;10.174;2022-07-24T23:06:32;6.88;;;4.32;;
62010;SDS011;47967;51.756;10.174;2022-07-24T23:10:34;5.65;;;4.30;;
62010;SDS011;47967;51.756;10.174;2022-07-24T23:14:37;6.03;;;3.80;;
62010;SDS011;47967;51.756;10.174;2022-07-24T23:18:41;7.07;;;4.05;;
62010;SDS011;47967;51.756;10.174;2022-07-24T23:22:44;7.10;;;3.83;;
62010;SDS011;47967;51.756;10.174;2022-07-24T23:26:46;6.88;;;4.40;;
62010;SDS011;47967;51.756;10.174;2022-07-24T23:30:50;6.50;;;4.55;;
62010;SDS011;47967;51.756;10.174;2022-07-24T23:34:54;5.93;;;4.03;;
62010;SDS011;47967;51.756;10.174;2022-07-24T23:38:57;5.40;;;4.18;;
62010;SDS011;47967;51.756;10.174;2022-07-24T23:43:00;8.95;;;4.43;;
62010;SDS011;47967;51.756;10.174;2022-07-24T23:47:02;6.07;;;4.40;;
62010;SDS011;47967;51.756;10.174;2022-07-24T23:51:06;6.85;;;4.50;;
62010;SDS011;47967;51.756;10.174;2022-07-24T23:55:09;10.02;;;4.22;;
62010;SDS011;47967;51.756;10.174;2022-07-24T23:59:11;5.93;;;4.00;;
